Time;durP1;ratioP1;P1;durP2;ratioP2;P2;SDS_P1;SDS_P2;PMS_P1;PMS_P2;Temp;Humidity;BMP_temperature;BMP_pressure;BME280_temperature;BME280_humidity;BME280_pressure;Samples;Min_cycle;Max_cycle;Signal;HPM_P1;HPM_P2
2022/05/05 00:02:15;;;;;;;10.40;9.50;;;;;;;-141.48;100.00;69781.59;5170122;28;20137;-85
2022/05/05 00:04:45;;;;;;;12.70;9.35;;;;;;;-141.48;100.00;69781.59;5151917;28;20013;-85
2022/05/05 00:07:16;;;;;;;15.73;9.02;;;;;;;-141.48;100.00;69781.59;5154071;28;20031;-85
2022/05/05 00:09:46;;;;;;;9.05;8.45;;;;;;;-141.48;100.00;69781.59;5154012;28;20026;-85
2022/05/05 00:15:07;;;;;;;11.70;10.57;;;;;;;-141.48;100.00;69781.59;5169846;28;20062;-85
2022/05/05 00:17:37;;;;;;;11.13;9.77;;;;;;;-141.48;100.00;69781.59;5170255;28;20022;-86
2022/05/05 00:20:08;;;;;;;10.70;9.60;;;;;;;-141.48;100.00;69781.59;5170114;28;20078;-85
2022/05/05 00:22:39;;;;;;;10.88;9.98;;;;;;;-141.48;100.00;69781.59;5156465;28;20026;-85
2022/05/05 00:25:09;;;;;;;12.30;10.98;;;;;;;-141.48;100.00;69781.59;5153592;28;20384;-86
2022/05/05 00:27:40;;;;;;;10.43;9.77;;;;;;;-141.48;100.00;69781.59;5153810;28;20113;-85
2022/05/05 00:30:10;;;;;;;14.75;9.63;;;;;;;-141.48;100.00;69781.59;5153692;28;20026;-86
2022/05/05 00:32:41;;;;;;;12.93;11.60;;;;;;;-141.48;100.00;69781.59;5154605;28;20030;-86
2022/05/05 00:35:11;;;;;;;12.18;10.60;;;;;;;-141.48;100.00;69781.59;5154647;28;20050;-86
2022/05/05 00:37:42;;;;;;;11.45;10.38;;;;;;;-141.48;100.00;69781.59;5136770;28;20062;-85
2022/05/05 00:40:12;;;;;;;11.00;9.98;;;;;;;-141.48;100.00;69781.59;5154676;28;20027;-86
2022/05/05 00:42:43;;;;;;;11.55;10.48;;;;;;;-141.48;100.00;69781.59;5152591;28;20027;-85
2022/05/05 00:45:13;;;;;;;11.73;10.30;;;;;;;-141.48;100.00;69781.59;5152977;28;20497;-85
2022/05/05 00:47:44;;;;;;;15.15;10.85;;;;;;;-141.48;100.00;69781.59;5152617;28;20053;-85
2022/05/05 00:50:16;;;;;;;14.13;11.43;;;;;;;-141.48;100.00;69781.59;5153812;28;20034;-85
2022/05/05 00:52:46;;;;;;;26.88;11.02;;;;;;;-141.48;100.00;69781.59;5137467;28;20046;-85
2022/05/05 00:55:17;;;;;;;13.52;10.85;;;;;;;-141.48;100.00;69781.59;5154107;28;20024;-85
2022/05/05 00:57:47;;;;;;;12.43;11.25;;;;;;;-141.48;100.00;69781.59;5136078;28;20081;-84
2022/05/05 01:00:19;;;;;;;10.35;9.25;;;;;;;-141.48;100.00;69781.59;5154317;28;20065;-85
2022/05/05 01:02:51;;;;;;;11.75;9.55;;;;;;;-141.48;100.00;69781.59;5153973;28;20018;-85
2022/05/05 01:05:22;;;;;;;11.30;10.20;;;;;;;-141.48;100.00;69781.59;5153411;28;20034;-85
2022/05/05 01:07:53;;;;;;;24.48;12.27;;;;;;;-141.48;100.00;69781.59;5153929;28;20033;-85
2022/05/05 01:10:25;;;;;;;11.40;10.30;;;;;;;-141.48;100.00;69781.59;5152354;28;20082;-85
2022/05/05 01:12:55;;;;;;;11.23;10.18;;;;;;;-141.48;100.00;69781.59;5153657;28;20023;-85
2022/05/05 01:15:25;;;;;;;9.93;9.13;;;;;;;-141.48;100.00;69781.59;5152662;28;20042;-86
2022/05/05 01:17:59;;;;;;;9.73;8.93;;;;;;;-141.48;100.00;69781.59;5153267;28;20034;-85
2022/05/05 01:20:29;;;;;;;10.55;9.48;;;;;;;-141.48;100.00;69781.59;5135461;28;20085;-85
2022/05/05 01:23:00;;;;;;;11.80;10.55;;;;;;;-141.48;100.00;69781.59;5135808;28;20448;-85
2022/05/05 01:28:21;;;;;;;11.85;10.90;;;;;;;-141.48;100.00;69781.59;5153232;28;20053;-85
2022/05/05 01:30:52;;;;;;;11.52;10.35;;;;;;;-141.48;100.00;69781.59;5136092;28;20110;-85
2022/05/05 01:33:25;;;;;;;12.02;10.35;;;;;;;-141.48;100.00;69781.59;5152213;28;20081;-86
2022/05/05 01:35:57;;;;;;;12.15;11.00;;;;;;;-141.48;100.00;69781.59;5152752;28;20061;-85
2022/05/05 01:38:36;;;;;;;10.98;9.82;;;;;;;-141.48;100.00;69781.59;5135511;28;20031;-85
2022/05/05 01:41:11;;;;;;;11.15;10.07;;;;;;;-141.48;100.00;69781.59;5152477;28;20030;-85
2022/05/05 01:43:44;;;;;;;11.32;10.45;;;;;;;-141.48;100.00;69781.59;5135451;28;20412;-85
2022/05/05 01:46:14;;;;;;;12.13;10.77;;;;;;;-141.48;100.00;69781.59;5153239;28;20026;-84
2022/05/05 01:48:45;;;;;;;12.05;10.85;;;;;;;-141.48;100.00;69781.59;5135085;28;20019;-85
2022/05/05 01:51:15;;;;;;;15.43;10.40;;;;;;;-141.48;100.00;69781.59;5152338;28;20048;-85
2022/05/05 01:53:45;;;;;;;11.27;10.18;;;;;;;-141.48;100.00;69781.59;5153098;28;20118;-84
2022/05/05 01:56:16;;;;;;;12.98;11.52;;;;;;;-141.48;100.00;69781.59;5137344;28;20093;-86
2022/05/05 01:58:46;;;;;;;10.07;8.93;;;;;;;-141.48;100.00;69781.59;5157131;28;20035;-85
2022/05/05 02:01:17;;;;;;;18.23;12.32;;;;;;;-141.48;100.00;69781.59;5138655;28;20037;-84
2022/05/05 02:03:47;;;;;;;13.10;11.88;;;;;;;-141.48;100.00;69781.59;5155350;28;20501;-85
2022/05/05 02:06:17;;;;;;;12.93;11.70;;;;;;;-141.48;100.00;69781.59;5138749;28;20085;-85
2022/05/05 02:08:49;;;;;;;11.48;10.48;;;;;;;-141.48;100.00;69781.59;5155751;28;20018;-86
2022/05/05 02:11:20;;;;;;;11.90;10.75;;;;;;;-141.48;100.00;69781.59;5138964;28;20018;-85
2022/05/05 02:13:50;;;;;;;14.38;12.85;;;;;;;-141.48;100.00;69781.59;5156864;28;20028;-86
2022/05/05 02:16:21;;;;;;;12.38;10.30;;;;;;;-141.48;100.00;69781.59;5157818;28;20050;-85
2022/05/05 02:18:51;;;;;;;13.95;12.75;;;;;;;-141.48;100.00;69781.59;5157383;28;20025;-86
2022/05/05 02:21:21;;;;;;;12.77;11.48;;;;;;;-141.48;100.00;69781.59;5159765;28;20025;-85
2022/05/05 02:23:52;;;;;;;12.45;11.27;;;;;;;-141.48;100.00;69781.59;5164627;28;20026;-84
2022/05/05 02:26:22;;;;;;;11.98;10.82;;;;;;;-141.48;100.00;69781.59;5168612;28;20094;-86
2022/05/05 02:28:53;;;;;;;14.30;12.88;;;;;;;-141.48;100.00;69781.59;5158023;28;20099;-85
2022/05/05 02:31:23;;;;;;;14.77;13.23;;;;;;;-141.48;100.00;69781.59;5157746;28;20019;-86
2022/05/05 02:33:53;;;;;;;14.57;13.10;;;;;;;-141.48;100.00;69781.59;5156481;28;20034;-85
2022/05/05 02:39:13;;;;;;;13.65;12.25;;;;;;;-141.48;100.00;69781.59;5169468;23;20101;-80
2022/05/05 02:41:43;;;;;;;14.05;12.88;;;;;;;-141.48;100.00;69781.59;5156702;28;20059;-81
2022/05/05 02:44:14;;;;;;;14.13;12.95;;;;;;;-141.48;100.00;69781.59;5156896;28;20034;-79
2022/05/05 02:46:44;;;;;;;14.85;13.32;;;;;;;-141.48;100.00;69781.59;5157403;28;20030;-81
2022/05/05 02:49:15;;;;;;;13.95;12.75;;;;;;;-141.48;100.00;69781.59;5158251;28;20038;-80
2022/05/05 02:51:45;;;;;;;16.42;14.85;;;;;;;-141.48;100.00;69781.59;5158397;28;20519;-81
2022/05/05 02:57:05;;;;;;;13.95;12.65;;;;;;;-141.48;100.00;69781.59;5157078;28;20110;-79
2022/05/05 02:59:36;;;;;;;15.25;13.45;;;;;;;-141.48;100.00;69781.59;5157273;28;20062;-81
2022/05/05 03:02:06;;;;;;;16.67;14.55;;;;;;;-141.48;100.00;69781.59;5158651;28;20118;-81
2022/05/05 03:04:40;;;;;;;14.40;13.13;;;;;;;-141.48;100.00;69781.59;5158473;28;20343;-79
2022/05/05 03:07:11;;;;;;;19.23;14.30;;;;;;;-141.48;100.00;69781.59;5157528;28;21072;-81
2022/05/05 03:09:42;;;;;;;14.52;13.40;;;;;;;-141.48;100.00;69781.59;5157548;28;20058;-80
2022/05/05 03:12:12;;;;;;;15.65;13.65;;;;;;;-141.48;100.00;69781.59;5157350;28;20033;-81
2022/05/05 03:14:46;;;;;;;15.98;14.48;;;;;;;-141.48;100.00;69781.59;5139334;28;20485;-78
2022/05/05 03:17:17;;;;;;;13.80;12.75;;;;;;;-141.48;100.00;69781.59;5157226;28;20027;-81
2022/05/05 03:19:47;;;;;;;14.70;13.30;;;;;;;-141.48;100.00;69781.59;5156245;28;20034;-81
2022/05/05 03:22:17;;;;;;;14.43;13.10;;;;;;;-141.48;100.00;69781.59;5156637;28;20092;-81
2022/05/05 03:24:48;;;;;;;17.45;15.25;;;;;;;-141.48;100.00;69781.59;5158136;28;20038;-78
2022/05/05 03:27:18;;;;;;;14.80;13.70;;;;;;;-141.48;100.00;69781.59;5157532;28;20030;-77
2022/05/05 03:29:49;;;;;;;15.20;13.80;;;;;;;-141.48;100.00;69781.59;5159362;28;20023;-81
2022/05/05 03:32:19;;;;;;;16.25;13.95;;;;;;;-141.48;100.00;69781.59;5140914;28;20125;-81
2022/05/05 03:34:50;;;;;;;15.02;13.75;;;;;;;-141.48;100.00;69781.59;5156362;28;20026;-80
2022/05/05 03:37:20;;;;;;;14.73;13.25;;;;;;;-141.48;100.00;69781.59;5157431;28;20019;-81
2022/05/05 03:39:51;;;;;;;18.85;14.02;;;;;;;-141.48;100.00;69781.59;5157285;28;20117;-77
2022/05/05 03:42:21;;;;;;;13.73;12.65;;;;;;;-141.48;100.00;69781.59;5157658;28;20082;-79
2022/05/05 03:44:52;;;;;;;13.38;12.18;;;;;;;-141.48;100.00;69781.59;5161484;28;20038;-80
2022/05/05 03:47:22;;;;;;;20.73;15.30;;;;;;;-141.48;100.00;69781.59;5161558;28;20027;-80
2022/05/05 03:49:53;;;;;;;17.55;14.77;;;;;;;-141.48;100.00;69781.59;5161090;28;20026;-80
2022/05/05 03:52:23;;;;;;;13.38;12.27;;;;;;;-141.48;100.00;69781.59;5159987;28;20062;-78
2022/05/05 03:54:54;;;;;;;14.80;13.60;;;;;;;-141.48;100.00;69781.59;5160483;28;20022;-78
2022/05/05 03:57:24;;;;;;;14.07;12.75;;;;;;;-141.48;100.00;69781.59;5155144;28;20031;-80
2022/05/05 03:59:55;;;;;;;14.35;13.15;;;;;;;-141.48;100.00;69781.59;5155467;28;20030;-80
2022/05/05 04:02:25;;;;;;;14.48;11.40;;;;;;;-141.48;100.00;69781.59;5159432;28;20082;-79
2022/05/05 04:04:56;;;;;;;13.43;12.32;;;;;;;-141.48;100.00;69781.59;5167465;28;20094;-79
2022/05/05 04:07:27;;;;;;;15.32;13.80;;;;;;;-141.48;100.00;69781.59;5161559;28;20019;-79
2022/05/05 04:09:57;;;;;;;17.45;15.77;;;;;;;-141.48;100.00;69781.59;5156768;28;20033;-79
2022/05/05 04:12:28;;;;;;;15.40;14.02;;;;;;;-141.48;100.00;69781.59;5156257;28;20042;-81
2022/05/05 04:14:58;;;;;;;16.58;14.82;;;;;;;-141.48;100.00;69781.59;5156312;28;20030;-81
2022/05/05 04:17:29;;;;;;;13.98;12.88;;;;;;;-141.48;100.00;69781.59;5155947;28;20019;-78
2022/05/05 04:19:59;;;;;;;13.90;12.60;;;;;;;-141.48;100.00;69781.59;5156687;28;20038;-80
2022/05/05 04:22:30;;;;;;;14.57;12.65;;;;;;;-141.48;100.00;69781.59;5156429;28;20109;-81
2022/05/05 04:25:00;;;;;;;16.13;12.77;;;;;;;-141.48;100.00;69781.59;5156464;28;20082;-82
2022/05/05 04:27:32;;;;;;;15.00;13.80;;;;;;;-141.48;100.00;69781.59;5156013;28;20183;-81
2022/05/05 04:30:03;;;;;;;15.10;13.65;;;;;;;-141.48;100.00;69781.59;5157329;28;20085;-81
2022/05/05 04:32:33;;;;;;;14.77;13.50;;;;;;;-141.48;100.00;69781.59;5156819;28;20023;-81
2022/05/05 04:35:05;;;;;;;16.75;13.50;;;;;;;-141.48;100.00;69781.59;5152597;28;20029;-80
2022/05/05 04:37:35;;;;;;;19.10;14.77;;;;;;;-141.48;100.00;69781.59;5154068;28;20023;-82
2022/05/05 04:40:08;;;;;;;15.25;13.82;;;;;;;-141.48;100.00;69781.59;5138119;28;20031;-81
2022/05/05 04:42:38;;;;;;;15.07;13.60;;;;;;;-141.48;100.00;69781.59;5156015;28;20138;-81
2022/05/05 04:45:09;;;;;;;17.90;16.05;;;;;;;-141.48;100.00;69781.59;5156154;28;20106;-79
2022/05/05 04:47:40;;;;;;;17.13;15.43;;;;;;;-141.48;100.00;69781.59;5156959;28;20019;-81
2022/05/05 04:50:10;;;;;;;14.30;13.10;;;;;;;-141.48;100.00;69781.59;5140057;28;20050;-80
2022/05/05 04:52:41;;;;;;;14.73;13.07;;;;;;;-141.48;100.00;69781.59;5139476;28;20030;-79
2022/05/05 04:55:11;;;;;;;16.00;14.50;;;;;;;-141.48;100.00;69781.59;5156304;28;20523;-80
2022/05/05 04:57:42;;;;;;;17.35;13.93;;;;;;;-141.48;100.00;69781.59;5155670;28;20106;-81
2022/05/05 05:00:13;;;;;;;16.58;15.07;;;;;;;-141.48;100.00;69781.59;5155153;28;20041;-81
2022/05/05 05:02:43;;;;;;;16.92;14.98;;;;;;;-141.48;100.00;69781.59;5155809;28;20115;-80
2022/05/05 05:05:14;;;;;;;15.88;14.32;;;;;;;-141.48;100.00;69781.59;5155001;28;20098;-80
2022/05/05 05:07:44;;;;;;;16.77;15.00;;;;;;;-141.48;100.00;69781.59;5155691;28;20023;-81
2022/05/05 05:10:15;;;;;;;17.90;14.57;;;;;;;-141.48;100.00;69781.59;5155501;28;20384;-81
2022/05/05 05:12:45;;;;;;;27.13;13.68;;;;;;;-141.48;100.00;69781.59;5155559;28;20019;-80
2022/05/05 05:15:16;;;;;;;15.73;14.07;;;;;;;-141.48;100.00;69781.59;5154132;28;20033;-79
2022/05/05 05:17:47;;;;;;;13.50;12.45;;;;;;;-141.48;100.00;69781.59;5154742;28;20019;-79
2022/05/05 05:20:17;;;;;;;14.40;13.15;;;;;;;-141.48;100.00;69781.59;5155151;28;20034;-82
2022/05/05 05:22:48;;;;;;;17.58;15.90;;;;;;;-141.48;100.00;69781.59;5155198;28;20027;-81
2022/05/05 05:25:18;;;;;;;15.82;14.32;;;;;;;-141.48;100.00;69781.59;5154766;28;20442;-80
2022/05/05 05:27:48;;;;;;;15.52;13.75;;;;;;;-141.48;100.00;69781.59;5153321;28;20019;-79
2022/05/05 05:30:19;;;;;;;17.40;15.68;;;;;;;-141.48;100.00;69781.59;5155906;28;20019;-78
2022/05/05 05:32:50;;;;;;;16.65;14.65;;;;;;;-141.48;100.00;69781.59;5159371;28;20033;-80
2022/05/05 05:35:20;;;;;;;18.33;16.10;;;;;;;-141.48;100.00;69781.59;5141683;28;20085;-82
2022/05/05 05:37:51;;;;;;;15.73;14.25;;;;;;;-141.48;100.00;69781.59;5158010;28;20082;-81
2022/05/05 05:40:22;;;;;;;24.65;16.65;;;;;;;-141.48;100.00;69781.59;5158808;28;20027;-79
2022/05/05 05:42:52;;;;;;;21.25;16.58;;;;;;;-141.48;100.00;69781.59;5144890;28;20041;-80
2022/05/05 05:45:23;;;;;;;210.68;192.57;;;;;;;-141.48;100.00;69781.59;5163595;28;20027;-81
2022/05/05 05:47:54;;;;;;;19.27;17.77;;;;;;;-141.48;100.00;69781.59;5164131;28;20093;-77
2022/05/05 05:50:25;;;;;;;15.90;14.40;;;;;;;-141.48;100.00;69781.59;5143742;28;20034;-79
2022/05/05 05:52:57;;;;;;;21.30;15.48;;;;;;;-141.48;100.00;69781.59;5167923;28;20027;-79
2022/05/05 05:55:28;;;;;;;17.80;16.13;;;;;;;-141.48;100.00;69781.59;5159681;28;20026;-81
2022/05/05 05:57:58;;;;;;;16.50;14.98;;;;;;;-141.48;100.00;69781.59;5158880;28;20054;-80
2022/05/05 06:00:32;;;;;;;17.88;16.08;;;;;;;-141.48;100.00;69781.59;5159583;28;20043;-80
2022/05/05 06:05:51;;;;;;;19.50;14.77;;;;;;;-141.48;100.00;69781.59;5158717;28;20038;-81
2022/05/05 06:08:22;;;;;;;23.75;16.00;;;;;;;-141.48;100.00;69781.59;5160423;28;20322;-79
2022/05/05 06:10:54;;;;;;;16.10;14.70;;;;;;;-141.48;100.00;69781.59;5169654;28;20086;-78
2022/05/05 06:13:24;;;;;;;20.88;17.67;;;;;;;-141.48;100.00;69781.59;5168657;28;20045;-78
2022/05/05 06:15:55;;;;;;;18.45;16.27;;;;;;;-141.48;100.00;69781.59;5169145;28;20046;-79
2022/05/05 06:18:26;;;;;;;24.00;15.40;;;;;;;-141.48;100.00;69781.59;5168921;28;20031;-80
2022/05/05 06:20:57;;;;;;;27.80;18.77;;;;;;;-141.48;100.00;69781.59;5167646;28;20045;-82
2022/05/05 06:23:27;;;;;;;21.83;18.75;;;;;;;-141.48;100.00;69781.59;5158901;28;20030;-83
2022/05/05 06:25:58;;;;;;;19.80;18.02;;;;;;;-141.48;100.00;69781.59;5159771;28;20084;-83
2022/05/05 06:28:28;;;;;;;22.33;17.35;;;;;;;-141.48;100.00;69781.59;5159532;28;20023;-81
2022/05/05 06:30:59;;;;;;;28.50;18.35;;;;;;;-141.48;100.00;69781.59;5142175;28;20103;-81
2022/05/05 06:33:29;;;;;;;18.70;16.90;;;;;;;-141.48;100.00;69781.59;5159393;28;20026;-84
2022/05/05 06:36:00;;;;;;;25.55;17.13;;;;;;;-141.48;100.00;69781.59;5159583;28;20041;-82
2022/05/05 06:38:32;;;;;;;18.27;16.20;;;;;;;-141.48;100.00;69781.59;5160341;28;20049;-81
2022/05/05 06:41:02;;;;;;;18.38;16.70;;;;;;;-141.48;100.00;69781.59;5159455;28;20059;-81
2022/05/05 06:43:34;;;;;;;19.95;18.17;;;;;;;-141.48;100.00;69781.59;5141030;28;20034;-80
2022/05/05 06:46:04;;;;;;;19.45;17.48;;;;;;;-141.48;100.00;69781.59;5159995;28;20054;-84
2022/05/05 06:48:35;;;;;;;24.15;18.42;;;;;;;-141.48;100.00;69781.59;5142360;28;20027;-82
2022/05/05 06:51:06;;;;;;;53.42;19.80;;;;;;;-141.48;100.00;69781.59;5160491;28;20019;-83
2022/05/05 06:53:36;;;;;;;23.77;16.60;;;;;;;-141.48;100.00;69781.59;5142441;28;20484;-82
2022/05/05 06:56:07;;;;;;;23.75;16.70;;;;;;;-141.48;100.00;69781.59;5159011;28;20133;-83
2022/05/05 06:58:37;;;;;;;22.30;18.40;;;;;;;-141.48;100.00;69781.59;5141854;28;20023;-81
2022/05/05 07:06:46;;;;;;;21.40;19.57;;;;;;;-141.48;100.00;69781.59;5160962;28;20073;-83
2022/05/05 07:12:05;;;;;;;19.90;17.92;;;;;;;-141.48;100.00;69781.59;5158811;28;20428;-81
2022/05/05 07:14:36;;;;;;;23.58;19.00;;;;;;;-141.48;100.00;69781.59;5158991;28;20022;-82
2022/05/05 07:17:08;;;;;;;32.42;23.17;;;;;;;-141.48;100.00;69781.59;5141377;28;20029;-80
2022/05/05 07:19:39;;;;;;;26.92;20.42;;;;;;;-141.48;100.00;69781.59;5158092;28;20081;-82
2022/05/05 07:22:10;;;;;;;23.38;20.65;;;;;;;-141.48;100.00;69781.59;5158211;28;20027;-82
2022/05/05 07:24:40;;;;;;;22.05;19.77;;;;;;;-141.48;100.00;69781.59;5158598;28;20026;-83
2022/05/05 07:27:11;;;;;;;22.85;20.65;;;;;;;-141.48;100.00;69781.59;5143056;28;20037;-83
2022/05/05 07:29:41;;;;;;;26.45;22.80;;;;;;;-141.48;100.00;69781.59;5159830;28;20035;-83
2022/05/05 07:32:12;;;;;;;34.47;22.75;;;;;;;-141.48;100.00;69781.59;5161030;28;20026;-83
2022/05/05 07:34:43;;;;;;;26.35;23.27;;;;;;;-141.48;100.00;69781.59;5161115;28;20022;-83
2022/05/05 07:37:13;;;;;;;26.05;22.52;;;;;;;-141.48;100.00;69781.59;5143814;28;20022;-85
2022/05/05 07:39:44;;;;;;;22.45;19.98;;;;;;;-141.48;100.00;69781.59;5160123;28;20057;-83
2022/05/05 07:42:14;;;;;;;23.25;19.30;;;;;;;-141.48;100.00;69781.59;5161888;28;20030;-81
2022/05/05 07:44:45;;;;;;;22.90;20.50;;;;;;;-141.48;100.00;69781.59;5161191;28;20062;-83
2022/05/05 07:47:15;;;;;;;25.65;22.85;;;;;;;-141.48;100.00;69781.59;5161546;28;20038;-84
2022/05/05 07:49:45;;;;;;;25.73;20.33;;;;;;;-141.48;100.00;69781.59;5161499;28;20518;-83
2022/05/05 07:52:16;;;;;;;26.88;21.77;;;;;;;-141.48;100.00;69781.59;5161595;28;20030;-84
2022/05/05 07:54:46;;;;;;;25.55;22.17;;;;;;;-141.48;100.00;69781.59;5144103;28;20045;-84
2022/05/05 07:57:20;;;;;;;27.73;24.77;;;;;;;-141.48;100.00;69781.59;5143289;28;20031;-82
2022/05/05 07:59:50;;;;;;;30.48;25.10;;;;;;;-141.48;100.00;69781.59;5159656;28;20027;-84
2022/05/05 08:02:21;;;;;;;24.75;22.23;;;;;;;-141.48;100.00;69781.59;5159541;28;20038;-84
2022/05/05 08:04:53;;;;;;;26.20;23.65;;;;;;;-141.48;100.00;69781.59;5141434;28;20038;-82
2022/05/05 08:07:23;;;;;;;25.65;23.08;;;;;;;-141.48;100.00;69781.59;5159761;28;20579;-85
2022/05/05 08:09:53;;;;;;;25.52;22.75;;;;;;;-141.48;100.00;69781.59;5158320;28;20023;-83
2022/05/05 08:12:24;;;;;;;32.53;23.83;;;;;;;-141.48;100.00;69781.59;5158747;28;20026;-83
2022/05/05 08:14:54;;;;;;;24.75;22.10;;;;;;;-141.48;100.00;69781.59;5159820;28;20428;-83
2022/05/05 08:17:25;;;;;;;26.65;23.98;;;;;;;-141.48;100.00;69781.59;5159120;28;20027;-84
2022/05/05 08:19:55;;;;;;;28.25;25.15;;;;;;;-141.48;100.00;69781.59;5159073;28;20026;-83
2022/05/05 08:22:26;;;;;;;28.42;25.60;;;;;;;-141.48;100.00;69781.59;5157346;28;20037;-79
2022/05/05 08:30:35;;;;;;;31.08;27.17;;;;;;;-141.48;100.00;69781.59;5160323;28;20070;-80
2022/05/05 08:33:05;;;;;;;27.60;23.30;;;;;;;-141.48;100.00;69781.59;5158169;28;20026;-81
2022/05/05 08:35:36;;;;;;;31.73;26.15;;;;;;;-141.48;100.00;69781.59;5158111;28;20026;-82
2022/05/05 08:38:07;;;;;;;27.90;25.17;;;;;;;-141.48;100.00;69781.59;5179403;23;20038;-52
2022/05/05 08:44:04;;;;;;;25.73;23.15;;;;;;;-141.48;100.00;69781.59;5124399;29;20081;-54
2022/05/05 08:46:35;;;;;;;31.73;24.27;;;;;;;-141.48;100.00;69781.59;5106981;29;20050;-52
2022/05/05 08:49:06;;;;;;;28.42;25.63;;;;;;;-141.48;100.00;69781.59;5123248;29;20062;-56
2022/05/05 08:51:54;;;;;;;25.40;23.17;;;;;;;-141.48;100.00;69781.59;5107172;29;20440;-52
2022/05/05 08:54:25;;;;;;;29.65;26.88;;;;;;;-141.48;100.00;69781.59;5106283;29;20031;-58
2022/05/05 08:56:56;;;;;;;35.85;25.45;;;;;;;-141.48;100.00;69781.59;5107005;29;20427;-55
2022/05/05 08:59:26;;;;;;;30.70;26.10;;;;;;;-141.48;100.00;69781.59;5122898;29;20035;-57
2022/05/05 09:01:57;;;;;;;37.60;22.48;;;;;;;-141.48;100.00;69781.59;5122981;29;20024;-57
2022/05/05 09:04:27;;;;;;;26.23;23.77;;;;;;;-141.48;100.00;69781.59;5123265;29;20037;-56
2022/05/05 09:14:09;;;;;;;22.80;18.80;;;;;;;-141.48;100.00;69781.59;5219653;23;20073;-91
2022/05/05 09:17:03;;;;;;;23.27;19.67;;;;;;;-141.48;100.00;69781.59;5169371;28;20046;-92
2022/05/05 09:19:41;;;;;;;27.65;22.35;;;;;;;-141.48;100.00;69781.59;5177914;28;20042;-91
2022/05/05 09:22:28;;;;;;;21.02;19.20;;;;;;;-141.48;100.00;69781.59;5159914;28;20485;-90
2022/05/05 09:27:51;;;;;;;17.67;15.95;;;;;;;-141.48;100.00;69781.59;5023725;23;20429;-54
2022/05/05 09:30:22;;;;;;;20.65;18.45;;;;;;;-141.48;100.00;69781.59;5164573;28;20343;-55
2022/05/05 09:32:52;;;;;;;21.50;18.65;;;;;;;-141.48;100.00;69781.59;5162980;28;20105;-54
2022/05/05 09:35:23;;;;;;;20.25;18.35;;;;;;;-141.48;100.00;69781.59;5146216;28;20019;-56
2022/05/05 09:37:54;;;;;;;20.65;17.98;;;;;;;-141.48;100.00;69781.59;5143103;28;20026;-55
2022/05/05 09:40:24;;;;;;;18.83;17.15;;;;;;;-141.48;100.00;69781.59;5143429;28;20041;-55
2022/05/05 09:42:55;;;;;;;20.48;18.27;;;;;;;-141.48;100.00;69781.59;5127371;28;20097;-54
2022/05/05 09:45:31;;;;;;;23.25;19.00;;;;;;;-141.48;100.00;69781.59;5142990;28;20029;-55
2022/05/05 09:48:03;;;;;;;26.75;21.15;;;;;;;-141.48;100.00;69781.59;5143353;28;20026;-53
2022/05/05 09:50:34;;;;;;;24.08;21.63;;;;;;;-141.48;100.00;69781.59;5143605;28;20406;-55
2022/05/05 09:58:48;;;;;;;24.88;22.45;;;;;;;-141.48;100.00;69781.59;5144807;28;20399;-55
2022/05/05 10:01:24;;;;;;;25.05;22.75;;;;;;;-141.48;100.00;69781.59;5143457;28;20380;-54
2022/05/05 10:04:05;;;;;;;24.00;21.77;;;;;;;-141.48;100.00;69781.59;5143201;28;20022;-54
2022/05/05 10:06:40;;;;;;;22.88;19.95;;;;;;;-141.48;100.00;69781.59;5143212;28;20037;-55
2022/05/05 10:09:12;;;;;;;28.63;22.25;;;;;;;-141.48;100.00;69781.59;5144460;28;20023;-55
2022/05/05 10:11:43;;;;;;;25.85;23.15;;;;;;;-141.48;100.00;69781.59;5143260;28;20030;-59
2022/05/05 10:14:16;;;;;;;25.98;23.55;;;;;;;-141.48;100.00;69781.59;5144126;28;20073;-56
2022/05/05 10:16:47;;;;;;;25.48;23.33;;;;;;;-141.48;100.00;69781.59;5144407;28;20125;-55
2022/05/05 10:19:17;;;;;;;30.77;21.88;;;;;;;-141.48;100.00;69781.59;5130482;28;20166;-55
2022/05/05 10:22:13;;;;;;;25.83;23.48;;;;;;;-141.48;100.00;69781.59;5146940;28;20445;-55
2022/05/05 10:24:53;;;;;;;26.88;24.20;;;;;;;-141.48;100.00;69781.59;5146336;28;20027;-53
2022/05/05 10:27:24;;;;;;;25.95;23.58;;;;;;;-141.48;100.00;69781.59;5146617;28;20050;-56
2022/05/05 10:29:55;;;;;;;25.40;22.73;;;;;;;-141.48;100.00;69781.59;5147695;28;20176;-58
2022/05/05 10:32:26;;;;;;;26.75;23.92;;;;;;;-141.48;100.00;69781.59;5146504;28;20027;-53
2022/05/05 10:35:12;;;;;;;22.85;20.65;;;;;;;-141.48;100.00;69781.59;5146004;28;20117;-54
2022/05/05 10:37:43;;;;;;;24.35;21.77;;;;;;;-141.48;100.00;69781.59;5146407;28;20069;-55
2022/05/05 10:40:14;;;;;;;27.33;22.65;;;;;;;-141.48;100.00;69781.59;5146683;28;20035;-54
2022/05/05 10:42:49;;;;;;;25.05;22.55;;;;;;;-141.48;100.00;69781.59;5130136;28;20395;-56
2022/05/05 10:45:26;;;;;;;25.25;22.67;;;;;;;-141.48;100.00;69781.59;5147280;28;20110;-55
2022/05/05 10:48:06;;;;;;;25.98;22.75;;;;;;;-141.48;100.00;69781.59;5146098;28;20027;-53
2022/05/05 10:50:42;;;;;;;;;;;;;;;-141.48;100.00;69781.59;5146787;28;20102;-56
2022/05/05 10:53:45;;;;;;;28.58;23.88;;;;;;;-141.48;100.00;69781.59;5147596;28;19910;-56
2022/05/05 10:56:30;;;;;;;25.48;22.98;;;;;;;-141.48;100.00;69781.59;5146166;28;20034;-56
2022/05/05 10:59:03;;;;;;;25.05;22.58;;;;;;;-141.48;100.00;69781.59;5146014;28;20049;-56
2022/05/05 11:01:46;;;;;;;25.42;22.83;;;;;;;-141.48;100.00;69781.59;5146018;28;20058;-55
2022/05/05 11:04:17;;;;;;;26.83;24.13;;;;;;;-141.48;100.00;69781.59;5145515;28;20030;-56
2022/05/05 11:06:49;;;;;;;26.55;23.23;;;;;;;-141.48;100.00;69781.59;5146009;28;20038;-56
2022/05/05 11:09:30;;;;;;;23.15;20.83;;;;;;;-141.48;100.00;69781.59;5146021;28;20034;-58
2022/05/05 11:12:16;;;;;;;22.95;20.45;;;;;;;-141.48;100.00;69781.59;5145584;28;20031;-55
2022/05/05 11:23:45;;;;;;;23.98;21.15;;;;;;;-141.48;100.00;69781.59;5146390;28;20065;-56
2022/05/05 11:26:17;;;;;;;23.25;21.20;;;;;;;-141.48;100.00;69781.59;5144972;28;20019;-56
2022/05/05 11:28:49;;;;;;;26.23;23.77;;;;;;;-141.48;100.00;69781.59;5144918;28;20034;-56
2022/05/05 11:31:23;;;;;;;26.83;24.17;;;;;;;-141.48;100.00;69781.59;5145761;28;20050;-55
2022/05/05 11:34:00;;;;;;;20.13;18.30;;;;;;;-141.48;100.00;69781.59;5145319;28;20019;-56
2022/05/05 11:36:34;;;;;;;20.52;18.95;;;;;;;-141.48;100.00;69781.59;5145627;28;20022;-55
2022/05/05 11:39:06;;;;;;;22.15;20.35;;;;;;;-141.48;100.00;69781.59;5145125;28;20033;-57
2022/05/05 11:41:37;;;;;;;21.67;19.88;;;;;;;-141.48;100.00;69781.59;5129225;28;20129;-56
2022/05/05 11:44:15;;;;;;;18.65;16.73;;;;;;;-141.48;100.00;69781.59;5145071;28;20515;-56
2022/05/05 11:46:45;;;;;;;22.08;20.13;;;;;;;-141.48;100.00;69781.59;5145557;28;20038;-57
2022/05/05 11:49:16;;;;;;;20.70;18.67;;;;;;;-141.48;100.00;69781.59;5146306;28;20027;-56
2022/05/05 11:51:47;;;;;;;21.25;19.13;;;;;;;-141.48;100.00;69781.59;5145248;28;20023;-57
2022/05/05 11:54:26;;;;;;;20.65;19.02;;;;;;;-141.48;100.00;69781.59;5145126;28;20146;-59
2022/05/05 11:56:57;;;;;;;20.52;18.15;;;;;;;-141.48;100.00;69781.59;5145469;28;20495;-58
2022/05/05 12:02:23;;;;;;;23.15;21.05;;;;;;;-141.48;100.00;69781.59;5146610;28;20030;-61
2022/05/05 12:04:56;;;;;;;22.63;20.63;;;;;;;-141.48;100.00;69781.59;5145170;28;20027;-59
2022/05/05 12:07:27;;;;;;;23.20;20.85;;;;;;;-141.48;100.00;69781.59;5145278;28;20566;-54
2022/05/05 12:10:02;;;;;;;22.95;20.52;;;;;;;-141.48;100.00;69781.59;5144968;28;20077;-57
2022/05/05 12:12:35;;;;;;;23.35;20.90;;;;;;;-141.48;100.00;69781.59;5144882;28;20607;-57
2022/05/05 12:15:07;;;;;;;17.80;16.40;;;;;;;-141.48;100.00;69781.59;5144529;28;20095;-55